Flight Track Log - Related Links

Times and Time Zones

All times are in EDT time to prevent confusion due to time zone crossing. See the AAL832 flight status page for this flight to view local times or setup timezone preferences in your user account.

Time Position Orientation Groundspeed Altitude Reporting Facility
EDT Latitude Longitude Course Direction KTS MPH feet Rate Location/Type
Wed 05:41:29 PM 41.9333 -87.9167 228° Southwest 187 215 1,600  Level Chicago TRACON
Wed 05:42:29 PM 41.9000 -87.9667 228° Southwest 237 273 3,200 1,700 Climbing Chicago TRACON
Wed 05:43:29 PM 41.8333 -88.0167 209° Southwest 288 331 5,000 1,289 Climbing Chicago TRACON
Wed 05:44:44 PM 41.7406 -88.0114 178° South 283 326 6,100 1,839 Climbing Chicago Center
Wed 05:45:46 PM 41.6619 -87.9797 163° South 296 341 9,200 2,903 Climbing Chicago Center
Wed 05:46:48 PM 41.5822 -87.9461 162° South 301 346 12,100 2,419 Climbing Chicago Center
Wed 05:47:50 PM 41.4958 -87.9106 163° South 318 366 14,200 1,887 Climbing Chicago Center
Wed 05:48:52 PM 41.3928 -87.9017 176° South 362 417 16,000 1,790 Climbing Chicago Center
Wed 05:49:54 PM 41.2822 -87.8956 178° South 388 447 17,900 2,016 Climbing Chicago Center
Wed 05:50:57 PM 41.1442 -87.8914 179° South 410 472 20,200 2,064 Climbing Chicago Center
Wed 05:51:59 PM 41.0247 -87.8872 178° South 424 488 22,200 1,790 Climbing Chicago Center
Wed 05:53:01 PM 40.9039 -87.8819 178° South 433 498 23,900 1,403 Climbing Chicago Center
Wed 05:54:03 PM 40.7781 -87.8753 178° South 453 521 25,100 1,355 Climbing Chicago Center
Wed 05:55:05 PM 40.6492 -87.8386 168° South 476 548 26,700 1,887 Climbing Chicago Center
Wed 05:56:07 PM 40.4964 -87.7964 168° South 472 543 29,000 1,597 Climbing Chicago Center
Wed 05:57:09 PM 40.3703 -87.7625 168° South 466 536 30,000 1,258 Climbing Chicago Center
Wed 05:58:11 PM 40.2419 -87.7286 169° South 471 542 31,600 1,536 Climbing Chicago Center
Wed 05:59:14 PM 40.1228 -87.6958 168° South 460 529 33,200 1,252 Climbing Chicago Center
Wed 06:00:06 PM 39.9958 -87.6636 169° South 457 526 34,000 1,000 Climbing Indianapolis Center
Wed 06:01:08 PM 39.8711 -87.6300 168° South 459 528 35,100 919 Climbing Indianapolis Center
Wed 06:02:10 PM 39.7456 -87.5969 169° South 462 532 35,900 435 Climbing Indianapolis Center
Wed 06:03:12 PM 39.6197 -87.5642 169° South 464 534 36,000 48 Climbing Indianapolis Center
Wed 06:04:14 PM 39.4939 -87.5294 168° South 465 535 36,000  Level Indianapolis Center
Wed 06:05:16 PM 39.3428 -87.4911 169° South 464 534 36,000 339 Level Indianapolis Center
Wed 06:06:18 PM 39.2167 -87.4567 168° South 466 536 36,700 484 Climbing Indianapolis Center
Wed 06:07:20 PM 39.0906 -87.4236 169° South 467 537 37,000 145 Climbing Indianapolis Center
Wed 06:08:22 PM 38.9647 -87.3914 169° South 462 532 37,000  Level Indianapolis Center
Wed 06:09:24 PM 38.8386 -87.3592 169° South 462 532 37,000  Level Indianapolis Center
Wed 06:10:26 PM 38.7133 -87.3250 168° South 461 531 37,000  Level Indianapolis Center
Wed 06:11:28 PM 38.5661 -87.2764 166° South 456 525 37,000  Level Indianapolis Center
Wed 06:12:30 PM 38.4494 -87.2039 154° Southeast 464 534 37,000  Level Indianapolis Center
Wed 06:13:32 PM 38.3353 -87.1344 154° Southeast 469 540 37,000  Level Indianapolis Center
Wed 06:14:34 PM 38.2200 -87.0642 154° Southeast 463 533 37,000  Level Indianapolis Center
Wed 06:15:36 PM 38.0833 -86.9792 154° Southeast 469 540 37,000  Level Indianapolis Center
Wed 06:16:38 PM 37.9683 -86.9092 154° Southeast 461 531 37,000  Level Indianapolis Center
Wed 06:17:40 PM 37.8522 -86.8375 154° Southeast 462 532 37,000  Level Indianapolis Center
Wed 06:18:42 PM 37.7369 -86.7703 155° Southeast 454 522 37,000  Level Indianapolis Center
Wed 06:19:44 PM 37.6228 -86.7025 155° Southeast 451 519 37,000  Level Indianapolis Center
Wed 06:20:45 PM 37.5072 -86.6331 155° Southeast 456 525 37,000  Level Indianapolis Center
Wed 06:21:47 PM 37.3714 -86.5503 154° Southeast 459 528 37,000  Level Indianapolis Center
Wed 06:22:49 PM 37.2561 -86.4828 155° Southeast 452 520 37,000  Level Indianapolis Center
Wed 06:24:08 PM 37.1147 -86.4003 155° Southeast 452 520 37,000  Level Memphis Center
Wed 06:24:53 PM 37.0242 -86.3450 154° Southeast 453 521 37,000  Level Indianapolis Center
Wed 06:25:55 PM 36.9075 -86.2767 155° Southeast 453 521 37,000  Level Indianapolis Center
Wed 06:26:57 PM 36.7917 -86.2086 155° Southeast 453 521 37,000  Level Indianapolis Center
Wed 06:27:59 PM 36.6761 -86.1392 154° Southeast 455 524 37,000  Level Indianapolis Center
Wed 06:29:01 PM 36.5603 -86.0722 155° Southeast 452 520 37,000  Level Indianapolis Center
Wed 06:30:03 PM 36.4475 -86.0069 155° Southeast 445 512 37,000  Level Indianapolis Center
Wed 06:31:05 PM 36.3317 -85.9394 155° Southeast 451 519 37,000  Level Indianapolis Center
Wed 06:32:07 PM 36.1969 -85.8633 155° Southeast 454 522 37,000  Level Indianapolis Center
Wed 06:34:28 PM 35.9406 -85.7186 155° Southeast 455 524 37,000  Level Atlanta Center
Wed 06:35:28 PM 35.8286 -85.6550 155° Southeast 455 524 37,000  Level Atlanta Center
Wed 06:36:28 PM 35.7169 -85.5886 154° Southeast 455 524 37,000  Level Atlanta Center
Wed 06:37:28 PM 35.6008 -85.5253 156° South 455 524 37,000  Level Atlanta Center
Wed 06:38:28 PM 35.4869 -85.4619 156° South 455 524 37,000  Level Atlanta Center
Wed 06:39:28 PM 35.3750 -85.3989 155° Southeast 455 524 37,000  Level Atlanta Center
Wed 06:40:28 PM 35.2586 -85.3333 155° Southeast 455 524 37,000  Level Atlanta Center
Wed 06:41:28 PM 35.1447 -85.2706 156° South 455 524 37,000  Level Atlanta Center
Wed 06:42:28 PM 35.0306 -85.2081 156° South 455 524 37,000  Level Atlanta Center
Wed 06:43:28 PM 34.9164 -85.1431 155° Southeast 455 524 37,000  Level Atlanta Center
Wed 06:44:28 PM 34.8019 -85.0811 156° South 455 524 37,000  Level Atlanta Center
Wed 06:45:28 PM 34.6878 -85.0164 155° Southeast 455 524 37,000  Level Atlanta Center
Wed 06:46:28 PM 34.5653 -84.9444 154° Southeast 449 517 37,000  Level Atlanta Center
Wed 06:47:28 PM 34.4550 -84.8853 156° South 449 517 37,000  Level Atlanta Center
Wed 06:48:28 PM 34.3406 -84.8211 155° Southeast 444 511 37,000  Level Atlanta Center
Wed 06:49:28 PM 34.2283 -84.7600 156° South 444 511 37,000  Level Atlanta Center
Wed 06:50:28 PM 34.1222 -84.7064 157° South 446 513 37,000  Level Atlanta Center
Wed 06:51:28 PM 34.0097 -84.6453 156° South 452 520 37,000  Level Atlanta Center
Wed 06:52:28 PM 33.8933 -84.5944 160° South 452 520 37,000  Level Atlanta Center
Wed 06:53:28 PM 33.7722 -84.5561 165° South 452 520 37,000  Level Atlanta Center
Wed 06:54:28 PM 33.6494 -84.5156 165° South 446 513 37,000  Level Atlanta Center
Wed 06:55:28 PM 33.5181 -84.4797 167° South 440 506 37,000  Level Atlanta Center
Wed 06:56:28 PM 33.3969 -84.4544 170° South 446 513 37,000  Level Atlanta Center
Wed 06:57:28 PM 33.2844 -84.4092 161° South 446 513 37,000  Level Atlanta Center
Wed 06:58:28 PM 33.1656 -84.3564 160° South 451 519 37,000  Level Atlanta Center
Wed 06:59:28 PM 33.0508 -84.3017 158° South 446 513 37,000  Level Atlanta Center
Wed 07:00:28 PM 32.9342 -84.2492 159° South 451 519 37,000  Level Atlanta Center
Wed 07:01:28 PM 32.8278 -84.1994 159° South 451 519 37,000  Level Atlanta Center
Wed 07:02:28 PM 32.7172 -84.1475 158° South 446 513 37,000  Level Atlanta Center
Wed 07:03:28 PM 32.6003 -84.0906 158° South 446 513 37,000  Level Atlanta Center
Wed 07:04:28 PM 32.4792 -84.0389 160° South 452 520 37,000  Level Atlanta Center
Wed 07:05:28 PM 32.3622 -83.9847 159° South 452 520 37,000  Level Atlanta Center
Wed 07:06:28 PM 32.2433 -83.9308 159° South 452 520 37,000  Level Atlanta Center
Wed 07:07:28 PM 32.1283 -83.8769 158° South 452 520 37,000  Level Atlanta Center
Wed 07:08:43 PM 31.9669 -83.8036 159° South 467 537 37,000  Level Jacksonville Center
Wed 07:09:43 PM 31.8525 -83.7461 168° South 467 537 37,000 -50 Level Jacksonville Center
Wed 07:10:00 PM 31.8176 -83.7665 168° South  Level FlightAware Approximate
Wed 07:10:43 PM 31.7319 -83.6961 161° South 462 532 36,900  Level Jacksonville Center
Wed 07:11:43 PM 31.6339 -83.6589 162° South 462 532 37,000 50 Climbing Jacksonville Center
Wed 07:12:43 PM 31.4881 -83.6283 170° South 479 551 37,000  Level Jacksonville Center
Wed 07:13:43 PM 31.3628 -83.6056 171° South 467 537 37,000  Level Jacksonville Center
Wed 07:14:43 PM 31.2397 -83.5803 170° South 462 532 37,000  Level Jacksonville Center
Wed 07:15:43 PM 31.1144 -83.5600 172° South 462 532 37,000  Level Jacksonville Center
Wed 07:16:43 PM 30.9894 -83.5347 170° South 462 532 37,000  Level Jacksonville Center
Wed 07:17:43 PM 30.8642 -83.5097 170° South 462 532 37,000 -50 Level Jacksonville Center
Wed 07:18:43 PM 30.7411 -83.4872 171° South 462 532 36,900  Descending Jacksonville Center
Wed 07:19:43 PM 30.6161 -83.4672 172° South 462 532 37,000 50 Climbing Jacksonville Center
Wed 07:20:43 PM 30.4908 -83.4422 170° South 462 532 37,000  Level Jacksonville Center
Wed 07:21:43 PM 30.3636 -83.4175 170° South 462 532 37,000  Level Jacksonville Center
Wed 07:22:43 PM 30.2383 -83.3950 171° South 462 532 37,000  Level Jacksonville Center
Wed 07:23:43 PM 30.1111 -83.3728 171° South 467 537 37,000  Level Jacksonville Center
Wed 07:24:43 PM 29.9839 -83.3506 171° South 467 537 37,000 -50 Level Jacksonville Center
Wed 07:25:43 PM 29.8544 -83.3283 172° South 467 537 36,900  Descending Jacksonville Center
Wed 07:26:43 PM 29.7272 -83.3064 171° South 467 537 37,000  Climbing Jacksonville Center
Wed 07:27:43 PM 29.5978 -83.2842 172° South 467 537 36,900  Descending Jacksonville Center
Wed 07:28:43 PM 29.4706 -83.2600 171° South 467 537 37,000 50 Climbing Jacksonville Center
Wed 07:29:43 PM 29.3453 -83.2356 170° South 467 537 37,000  Level Jacksonville Center
Wed 07:30:43 PM 29.2203 -83.2114 170° South 461 531 37,000  Level Jacksonville Center
Wed 07:31:43 PM 29.0950 -83.1897 171° South 461 531 37,000  Level Jacksonville Center
Wed 07:32:43 PM 28.9719 -83.1703 172° South 461 531 37,000  Level Jacksonville Center
Wed 07:33:43 PM 28.8425 -83.1817 184° South 461 531 37,000  Level Jacksonville Center
Wed 07:34:43 PM 28.7131 -83.1981 186° South 461 531 37,000 -50 Level Jacksonville Center
Wed 07:35:43 PM 28.5878 -83.2189 188° South 461 531 36,900  Descending Jacksonville Center
Wed 07:37:15 PM 28.3939 -83.2506 188° South 446 513 37,000  Climbing Miami Center
Wed 07:38:15 PM 28.2533 -83.2731 188° South 451 519 36,900  Descending Miami Center
Wed 07:39:15 PM 28.1250 -83.2942 188° South 456 525 37,000 50 Climbing Miami Center
Wed 07:40:15 PM 27.9969 -83.3150 188° South 467 537 37,000  Level Miami Center
Wed 07:41:15 PM 27.8669 -83.3333 187° South 472 543 37,000 -50 Level Miami Center
Wed 07:42:15 PM 27.7364 -83.3564 189° South 472 543 36,900 -150 Descending Miami Center
Wed 07:43:15 PM 27.6089 -83.3656 184° South 467 537 36,700 -600 Descending Miami Center
Wed 07:44:15 PM 27.4806 -83.3442 172° South 456 525 35,700 -975 Descending Miami Center
Wed 07:46:00 PM 27.3727 -83.1422 121° Southeast  Level Estimated
Wed 07:47:15 PM 27.1250 -83.1775 121° Southeast 460 529 32,800  Level Miami Center
Wed 07:48:15 PM 27.0067 -83.1150 155° Southeast 471 542 31,900 -950 Descending Miami Center
Wed 07:49:15 PM 26.8881 -83.0575 157° South 471 542 30,900 -950 Descending Miami Center
Wed 07:50:15 PM 26.7656 -82.9953 156° South 471 542 30,000 -958 Descending Miami Center
Wed 07:51:14 PM 26.6475 -82.9264 152° Southeast 471 542 29,000 -1,000 Descending Miami Center
Wed 07:52:15 PM 26.5403 -82.8419 145° Southeast 471 542 28,000 -992 Descending Miami Center
Wed 07:53:15 PM 26.4394 -82.7558 143° Southeast 471 542 27,000 -1,000 Descending Miami Center
Wed 07:54:15 PM 26.3406 -82.6697 142° Southeast 459 528 26,000 -1,000 Descending Miami Center
Wed 07:55:15 PM 26.2589 -82.5731 133° Southeast 452 520 25,000 -1,000 Descending Miami Center
Wed 07:56:15 PM 26.2053 -82.4481 116° Southeast 444 511 24,000 -500 Descending Miami Center
Wed 07:57:15 PM 26.1864 -82.3383 101° East 420 483 24,000  Level Miami Center
Wed 07:58:15 PM 26.1597 -82.2144 103° East 414 476 24,000 -300 Level Miami Center
Wed 07:59:15 PM 26.1331 -82.0883 103° East 408 470 23,400 -800 Descending Miami Center
Wed 08:00:15 PM 26.1061 -81.9600 103° East 413 475 22,400 -1,000 Descending Miami Center
Wed 08:01:15 PM 26.0811 -81.8389 103° East 413 475 21,400 -1,000 Descending Miami Center
Wed 08:02:15 PM 26.0539 -81.7175 104° East 408 470 20,400 -1,000 Descending Miami Center
Wed 08:03:15 PM 26.0286 -81.5986 103° East 402 463 19,400 -1,250 Descending Miami Center
Wed 08:04:15 PM 26.0033 -81.4728 103° East 391 450 17,900 -1,750 Descending Miami Center
Wed 08:05:15 PM 25.9778 -81.3608 104° East 379 436 15,900 -2,000 Descending Miami Center
Wed 08:06:15 PM 25.9575 -81.2656 103° East 362 417 13,900 -2,000 Descending Miami Center
Wed 08:07:00 PM 25.9331 -81.1792 107° East 354 407 12,400 -2,000 Descending Miami Center
Wed 08:07:54 PM 25.9128 -81.0836 103° East 343 395 10,600 -1,240 Descending Miami Center
Wed 08:09:01 PM 25.8739 -80.9853 114° Southeast 288 331 9,900 -1,031 Descending Miami Center
Wed 08:10:02 PM 25.8383 -80.9081 117° Southeast 275 316 8,400 -1,433 Descending Miami Center
Wed 08:11:15 PM 25.8033 -80.8192 114° Southeast 277 319 6,700 -1,353 Descending Miami Center
Wed 08:12:15 PM 25.7886 -80.7447 102° East 261 300 5,400 -1,400 Descending Miami Center
Wed 08:13:15 PM 25.7864 -80.6708 92° East 239 275 3,900 -1,150 Descending Miami Center
Wed 08:14:00 PM 25.8246 -80.5492 119° Southeast  Level FlightAware Approximate
Wed 08:14:15 PM 25.7858 -80.6133 119° Southeast 221 254 3,100  Level Miami Center
Wed 08:15:15 PM 25.7831 -80.5578 93° East 195 224 2,900 -54 Descending Miami Center
Wed 08:16:07 PM 25.7778 -80.5139 98° East 172 198 3,000 -212 Climbing Miami Center
Wed 08:17:08 PM 25.7750 -80.4606 93° East 174 200 2,500 -724 Descending Miami Center
Wed 08:18:03 PM 25.7803 -80.4147 83° East 160 184 1,600 -828 Descending Miami Center
Wed 08:19:04 PM 25.7792 -80.3686 92° East 146 168 900 -689 Descending Miami Center

Login

Don't have an account? Register now (free) for customized features, flight alerts, and more!